createdAt,value
2022-09-20T00:02:30.033Z,4.93
2022-09-20T00:05:15.523Z,4.57
2022-09-20T00:08:01.806Z,5.97
2022-09-20T00:10:47.357Z,6.57
2022-09-20T00:13:33.460Z,5.95
2022-09-20T00:16:25.353Z,8.70
2022-09-20T00:19:17.917Z,5.15
2022-09-20T00:22:03.415Z,5.10
2022-09-20T00:24:49.203Z,8.00
2022-09-20T00:27:34.538Z,7.32
2022-09-20T00:30:21.057Z,5.25
2022-09-20T00:33:06.497Z,6.28
2022-09-20T00:35:52.066Z,5.75
2022-09-20T00:38:37.594Z,5.43
2022-09-20T00:41:23.249Z,6.13
2022-09-20T00:44:47.713Z,6.18
2022-09-20T00:47:38.794Z,6.25
2022-09-20T00:50:36.857Z,5.88
2022-09-20T00:53:31.935Z,7.95
2022-09-20T00:56:24.492Z,7.18
2022-09-20T00:59:21.493Z,5.78
2022-09-20T01:02:13.525Z,5.97
2022-09-20T01:04:59.957Z,6.95
2022-09-20T01:07:47.657Z,7.82
2022-09-20T01:10:33.446Z,7.95
2022-09-20T01:13:19.050Z,10.68
2022-09-20T01:16:06.395Z,6.22
2022-09-20T01:18:52.676Z,7.18
2022-09-20T01:21:38.298Z,10.13
2022-09-20T01:24:33.666Z,7.22
2022-09-20T01:27:37.929Z,11.75
2022-09-20T01:30:33.319Z,8.80
2022-09-20T01:33:39.297Z,8.35
2022-09-20T01:36:51.189Z,10.38
2022-09-20T01:40:06.164Z,9.35
2022-09-20T01:43:04.062Z,9.50
2022-09-20T01:45:50.156Z,10.18
2022-09-20T01:48:40.133Z,12.02
2022-09-20T01:51:31.795Z,9.02
2022-09-20T01:54:42.684Z,10.88
2022-09-20T01:57:50.015Z,10.55
2022-09-20T02:01:06.162Z,11.00
2022-09-20T02:04:40.479Z,12.75
2022-09-20T02:07:52.362Z,8.35
2022-09-20T02:11:04.066Z,11.13
2022-09-20T02:14:05.192Z,12.52
2022-09-20T02:16:57.037Z,11.70
2022-09-20T02:19:57.213Z,12.20
2022-09-20T02:23:06.974Z,16.08
2022-09-20T02:26:11.358Z,7.78
2022-09-20T02:29:46.039Z,11.10
2022-09-20T02:32:55.932Z,11.18
2022-09-20T02:35:54.834Z,6.95
2022-09-20T02:38:48.870Z,8.85
2022-09-20T02:41:53.456Z,6.55
2022-09-20T02:44:54.508Z,9.07
2022-09-20T02:47:44.079Z,11.25
2022-09-20T02:50:40.938Z,7.38
2022-09-20T02:53:45.709Z,11.77
2022-09-20T02:56:48.048Z,10.82
2022-09-20T02:59:56.795Z,12.83
2022-09-20T03:03:30.201Z,12.07
2022-09-20T03:06:41.717Z,10.20
2022-09-20T03:09:35.948Z,13.80
2022-09-20T03:12:49.725Z,11.23
2022-09-20T03:15:52.287Z,10.80
2022-09-20T03:19:15.314Z,10.35
2022-09-20T03:22:15.870Z,9.43
2022-09-20T03:25:39.512Z,9.48
2022-09-20T03:28:36.950Z,11.82
2022-09-20T03:31:43.757Z,11.00
2022-09-20T03:34:43.467Z,8.50
2022-09-20T03:37:47.930Z,8.60
2022-09-20T03:40:52.995Z,10.32
2022-09-20T03:43:56.997Z,10.15
2022-09-20T03:46:47.186Z,9.02
2022-09-20T03:49:48.079Z,12.10
2022-09-20T03:52:36.460Z,8.77
2022-09-20T03:55:50.134Z,8.68
2022-09-20T03:58:59.660Z,9.73
2022-09-20T04:02:13.633Z,7.80
2022-09-20T04:05:14.294Z,9.73
2022-09-20T04:08:08.567Z,10.98
2022-09-20T04:11:15.727Z,8.57
2022-09-20T04:14:15.510Z,8.70
2022-09-20T04:17:42.996Z,9.35
2022-09-20T04:20:46.536Z,8.02
2022-09-20T04:23:50.005Z,8.95
2022-09-20T04:26:51.917Z,8.85
2022-09-20T04:29:57.357Z,8.75
2022-09-20T04:32:45.994Z,12.00
2022-09-20T04:36:28.259Z,11.60
2022-09-20T04:39:37.711Z,8.82
2022-09-20T04:43:01.499Z,9.75
2022-09-20T04:46:05.494Z,11.27
2022-09-20T04:49:24.898Z,10.48
2022-09-20T04:52:55.655Z,9.45
2022-09-20T04:56:14.105Z,10.27
2022-09-20T04:59:25.354Z,8.10
2022-09-20T05:02:40.036Z,9.05
2022-09-20T05:05:35.907Z,10.27
2022-09-20T05:09:02.638Z,11.25
2022-09-20T05:12:25.505Z,10.23
2022-09-20T05:15:49.654Z,11.15
2022-09-20T05:19:13.395Z,10.55
2022-09-20T05:22:36.515Z,9.93
2022-09-20T05:25:39.987Z,11.85
2022-09-20T05:28:42.858Z,12.45
2022-09-20T05:31:46.326Z,16.20
2022-09-20T05:34:57.758Z,13.40
2022-09-20T05:38:16.677Z,14.85
2022-09-20T05:41:13.901Z,12.88
2022-09-20T05:44:08.470Z,14.13
2022-09-20T05:47:08.904Z,13.02
2022-09-20T05:50:12.658Z,13.43
2022-09-20T05:53:34.028Z,13.48
2022-09-20T05:56:45.287Z,13.90
2022-09-20T06:00:08.067Z,13.38
2022-09-20T06:03:10.895Z,15.70
2022-09-20T06:06:31.718Z,13.93
2022-09-20T06:09:17.704Z,18.38
2022-09-20T06:12:12.243Z,14.48
2022-09-20T06:15:22.547Z,14.73
2022-09-20T06:18:26.055Z,13.82
2022-09-20T06:21:29.267Z,16.33
2022-09-20T06:24:46.808Z,12.30
2022-09-20T06:27:56.246Z,13.65
2022-09-20T06:30:48.766Z,12.10
2022-09-20T06:33:39.686Z,14.00
2022-09-20T06:37:08.845Z,14.63
2022-09-20T06:40:47.898Z,16.67
2022-09-20T06:43:35.811Z,15.43
2022-09-20T06:46:22.644Z,15.88
2022-09-20T06:49:09.572Z,15.10
2022-09-20T06:51:55.939Z,13.20
2022-09-20T06:54:45.693Z,20.67
2022-09-20T06:57:38.335Z,13.05
2022-09-20T07:00:23.524Z,15.00
2022-09-20T07:03:09.201Z,16.80
2022-09-20T07:05:54.639Z,13.25
2022-09-20T07:08:39.976Z,14.18
2022-09-20T07:11:25.545Z,11.68
2022-09-20T07:14:10.922Z,15.50
2022-09-20T07:16:56.388Z,10.77
2022-09-20T07:19:42.059Z,10.43
2022-09-20T07:22:28.543Z,12.93
2022-09-20T07:25:14.687Z,11.65
2022-09-20T07:28:00.236Z,9.25
2022-09-20T07:30:46.688Z,11.30
2022-09-20T07:33:32.699Z,10.35
2022-09-20T07:36:18.126Z,9.05
2022-09-20T07:39:03.697Z,8.60
2022-09-20T07:41:50.668Z,11.65
2022-09-20T07:44:36.404Z,9.32
2022-09-20T07:47:25.280Z,9.43
2022-09-20T07:50:11.360Z,9.98
2022-09-20T07:52:57.863Z,10.38
2022-09-20T08:08:22.383Z,13.23
2022-09-20T08:11:12.391Z,16.13
2022-09-20T08:14:08.383Z,10.10
2022-09-20T08:16:59.893Z,11.48
2022-09-20T08:19:45.678Z,10.00
2022-09-20T08:22:32.530Z,11.43
2022-09-20T08:25:18.246Z,16.02
2022-09-20T08:28:03.624Z,9.25
2022-09-20T08:30:49.206Z,11.00
2022-09-20T08:33:37.644Z,12.90
2022-09-20T08:36:25.149Z,10.43
2022-09-20T08:42:24.485Z,10.93
2022-09-20T08:45:23.404Z,10.65
2022-09-20T08:48:21.790Z,8.63
2022-09-20T08:51:11.748Z,11.15
2022-09-20T08:53:58.370Z,11.25
2022-09-20T08:56:48.445Z,11.02
2022-09-20T08:59:34.602Z,10.05
2022-09-20T09:02:21.768Z,11.73
2022-09-20T09:05:28.255Z,9.43
2022-09-20T09:08:27.071Z,9.02
2022-09-20T09:11:15.317Z,12.07
2022-09-20T09:14:07.085Z,8.18
2022-09-20T09:16:53.611Z,6.43
2022-09-20T09:19:52.095Z,5.75
2022-09-20T09:22:42.845Z,7.88
2022-09-20T09:25:34.513Z,5.85
2022-09-20T09:28:24.701Z,4.65
2022-09-20T09:31:22.410Z,6.32
2022-09-20T09:34:38.722Z,4.53
2022-09-20T09:37:31.640Z,4.25
2022-09-20T09:40:19.490Z,6.47
2022-09-20T09:43:05.194Z,2.60
2022-09-20T09:45:51.004Z,3.72
2022-09-20T09:48:38.114Z,3.22
2022-09-20T09:51:26.557Z,2.15
2022-09-20T09:54:19.799Z,2.22
2022-09-20T09:57:40.427Z,2.95
2022-09-20T10:00:27.308Z,3.67
2022-09-20T10:03:31.395Z,2.30
2022-09-20T10:06:21.555Z,4.47
2022-09-20T10:09:33.066Z,3.42
2022-09-20T10:12:27.112Z,4.53
2022-09-20T10:15:28.192Z,2.47
2022-09-20T10:18:40.256Z,2.17
2022-09-20T10:21:39.131Z,1.92
2022-09-20T10:24:32.539Z,3.83
2022-09-20T10:27:35.612Z,1.95
2022-09-20T10:30:25.641Z,2.45
2022-09-20T10:33:22.911Z,1.27
2022-09-20T10:36:31.529Z,2.22
2022-09-20T10:39:38.455Z,3.75
2022-09-20T10:43:05.575Z,1.45
2022-09-20T10:49:37.231Z,0.90
2022-09-20T10:52:25.519Z,2.10
2022-09-20T10:55:40.291Z,1.75
2022-09-20T10:58:52.385Z,0.73
2022-09-20T11:02:01.947Z,1.92
2022-09-20T11:04:56.435Z,2.13
2022-09-20T11:08:06.802Z,1.73
2022-09-20T11:10:58.362Z,3.38
2022-09-20T11:13:46.660Z,2.90
2022-09-20T11:16:52.128Z,1.63
2022-09-20T11:19:47.689Z,1.98
2022-09-20T11:23:00.168Z,1.63
2022-09-20T11:26:04.858Z,1.92
2022-09-20T11:28:55.989Z,1.10
2022-09-20T11:31:45.569Z,1.83
2022-09-20T11:34:37.244Z,2.47
2022-09-20T11:37:25.710Z,1.35
2022-09-20T11:40:33.091Z,5.55
2022-09-20T11:43:19.707Z,3.60
2022-09-20T11:46:10.793Z,1.58
2022-09-20T11:49:09.932Z,2.85
2022-09-20T11:52:09.927Z,1.27
2022-09-20T11:55:10.887Z,4.20
2022-09-20T11:58:08.676Z,3.53
2022-09-20T12:00:59.217Z,2.92
2022-09-20T12:03:50.986Z,6.28
2022-09-20T12:06:39.005Z,2.07
2022-09-20T12:09:38.410Z,2.40
2022-09-20T12:12:44.107Z,1.92
2022-09-20T12:15:33.131Z,1.83
2022-09-20T12:18:34.714Z,2.88
2022-09-20T12:21:21.376Z,1.42
2022-09-20T12:24:19.171Z,2.22
2022-09-20T12:27:27.018Z,2.58
2022-09-20T12:30:20.214Z,1.27
2022-09-20T12:33:22.261Z,1.55
2022-09-20T12:36:17.078Z,3.30
2022-09-20T12:39:11.502Z,2.08
2022-09-20T12:42:12.388Z,1.13
2022-09-20T12:45:05.716Z,4.95
2022-09-20T12:47:56.070Z,3.80
2022-09-20T12:51:00.366Z,3.53
2022-09-20T12:54:01.509Z,4.60
2022-09-20T12:56:47.971Z,3.58
2022-09-20T12:59:34.701Z,1.10
2022-09-20T13:02:44.874Z,1.35
2022-09-20T13:06:12.537Z,1.52
2022-09-20T13:09:08.562Z,2.22
2022-09-20T13:12:02.403Z,3.75
2022-09-20T13:14:47.877Z,2.67
2022-09-20T13:17:34.697Z,2.78
2022-09-20T13:20:25.069Z,3.90
2022-09-20T13:23:20.423Z,3.00
2022-09-20T13:26:09.403Z,3.28
2022-09-20T13:28:59.150Z,3.60
2022-09-20T13:31:44.903Z,3.22
2022-09-20T13:34:30.371Z,1.13
2022-09-20T13:37:23.707Z,3.70
2022-09-20T13:40:21.393Z,2.03
2022-09-20T13:43:24.116Z,3.10
2022-09-20T13:46:12.870Z,2.33
2022-09-20T13:49:14.440Z,2.55
2022-09-20T13:52:12.211Z,3.42
2022-09-20T13:54:57.840Z,4.15
2022-09-20T13:57:44.244Z,4.53
2022-09-20T14:00:31.510Z,2.50
2022-09-20T14:03:18.543Z,3.20
2022-09-20T14:06:13.596Z,5.20
2022-09-20T14:09:01.941Z,4.00
2022-09-20T14:11:48.123Z,5.00
2022-09-20T14:14:35.082Z,4.10
2022-09-20T14:17:24.371Z,2.33
2022-09-20T14:20:15.388Z,8.05
2022-09-20T14:23:01.562Z,5.47
2022-09-20T14:26:25.876Z,1.92
2022-09-20T14:29:38.701Z,3.45
2022-09-20T14:32:26.566Z,2.78
2022-09-20T14:35:19.233Z,2.95
2022-09-20T14:38:10.333Z,3.80
2022-09-20T14:40:56.779Z,4.85
2022-09-20T14:43:42.366Z,5.25
2022-09-20T14:46:35.519Z,4.43
2022-09-20T14:52:26.693Z,5.43
2022-09-20T14:55:16.532Z,1.95
2022-09-20T14:58:10.313Z,2.58
2022-09-20T15:01:05.802Z,3.00
2022-09-20T15:03:52.338Z,2.08
2022-09-20T15:06:40.130Z,4.72
2022-09-20T15:09:25.443Z,2.83
2022-09-20T15:12:19.515Z,3.28
2022-09-20T15:15:05.571Z,3.78
2022-09-20T15:17:51.201Z,2.78
2022-09-20T15:20:36.579Z,4.05
2022-09-20T15:23:22.682Z,3.65
2022-09-20T15:26:10.567Z,2.25
2022-09-20T15:28:56.267Z,5.13
2022-09-20T15:31:42.111Z,3.38
2022-09-20T15:34:27.833Z,7.78
2022-09-20T15:37:13.308Z,4.63
2022-09-20T15:39:59.315Z,3.85
2022-09-20T15:42:45.901Z,2.58
2022-09-20T15:45:31.934Z,4.63
2022-09-20T15:48:22.988Z,3.63
2022-09-20T15:51:10.976Z,3.92
2022-09-20T15:54:01.683Z,1.75
2022-09-20T15:56:47.207Z,4.20
2022-09-20T15:59:35.407Z,3.03
2022-09-20T16:02:21.795Z,4.22
2022-09-20T16:05:10.003Z,2.47
2022-09-20T16:07:55.370Z,4.00
2022-09-20T16:10:40.942Z,1.95
2022-09-20T16:13:26.891Z,3.33
2022-09-20T16:16:14.191Z,3.13
2022-09-20T16:19:20.459Z,2.63
2022-09-20T16:22:06.472Z,2.17
2022-09-20T16:24:51.857Z,4.60
2022-09-20T16:27:37.402Z,1.50
2022-09-20T16:30:22.939Z,5.30
2022-09-20T16:33:11.846Z,7.82
2022-09-20T16:35:59.052Z,3.67
2022-09-20T16:38:44.975Z,4.10
2022-09-20T16:41:31.057Z,3.22
2022-09-20T16:44:16.403Z,3.97
2022-09-20T16:47:02.917Z,5.97
2022-09-20T16:49:50.250Z,6.78
2022-09-20T16:52:35.812Z,3.38
2022-09-20T16:55:21.487Z,3.72
2022-09-20T16:58:09.128Z,3.75
2022-09-20T17:01:02.546Z,4.35
2022-09-20T17:03:48.736Z,3.88
2022-09-20T17:06:35.119Z,3.90
2022-09-20T17:09:20.949Z,3.50
2022-09-20T17:12:09.319Z,2.90
2022-09-20T17:14:54.693Z,4.88
2022-09-20T17:17:42.218Z,7.53
2022-09-20T17:20:28.706Z,3.47
2022-09-20T17:23:14.122Z,6.47
2022-09-20T17:26:09.075Z,5.75
2022-09-20T17:28:56.399Z,4.47
2022-09-20T17:31:44.239Z,12.48
2022-09-20T17:34:30.001Z,7.75
2022-09-20T17:37:15.541Z,5.90
2022-09-20T17:40:02.927Z,9.40
2022-09-20T17:42:48.823Z,11.02
2022-09-20T17:45:34.550Z,19.00
2022-09-20T17:48:23.064Z,26.63
2022-09-20T17:51:12.677Z,20.48
2022-09-20T17:53:59.057Z,19.15
2022-09-20T17:56:50.202Z,18.23
2022-09-20T18:00:41.564Z,20.92
2022-09-20T18:03:26.974Z,17.65
2022-09-20T18:06:17.480Z,19.33
2022-09-20T18:09:06.691Z,16.38
2022-09-20T18:11:54.324Z,15.23
2022-09-20T18:14:39.793Z,13.32
2022-09-20T18:17:25.244Z,12.63
2022-09-20T18:20:10.831Z,10.35
2022-09-20T18:22:56.267Z,8.93
2022-09-20T18:26:00.632Z,9.48
2022-09-20T18:28:48.862Z,8.98
2022-09-20T18:31:43.108Z,6.78
2022-09-20T18:34:33.559Z,5.85
2022-09-20T18:37:19.374Z,8.68
2022-09-20T18:40:05.363Z,6.68
2022-09-20T18:43:00.176Z,6.22
2022-09-20T18:45:54.917Z,7.97
2022-09-20T18:48:40.339Z,4.87
2022-09-20T18:51:28.858Z,4.80
2022-09-20T18:54:16.009Z,6.72
2022-09-20T18:57:02.314Z,4.85
2022-09-20T18:59:54.345Z,6.28
2022-09-20T19:03:11.018Z,8.90
2022-09-20T19:06:03.030Z,9.48
2022-09-20T19:09:02.253Z,6.57
2022-09-20T19:11:55.860Z,7.50
2022-09-20T19:15:03.759Z,6.53
2022-09-20T19:18:23.640Z,8.52
2022-09-20T19:21:17.996Z,7.32
2022-09-20T19:24:34.231Z,5.63
2022-09-20T19:27:19.895Z,7.32
2022-09-20T19:30:05.561Z,5.57
2022-09-20T19:32:51.234Z,6.05
2022-09-20T19:35:40.334Z,6.03
2022-09-20T19:38:39.882Z,5.07
2022-09-20T19:41:41.007Z,8.25
2022-09-20T19:44:57.696Z,7.43
2022-09-20T19:48:06.970Z,6.18
2022-09-20T19:50:53.524Z,10.07
2022-09-20T19:53:39.691Z,7.38
2022-09-20T19:56:33.930Z,5.47
2022-09-20T19:59:24.729Z,8.52
2022-09-20T20:02:12.069Z,6.00
2022-09-20T20:04:58.292Z,5.38
2022-09-20T20:07:59.489Z,5.20
2022-09-20T20:11:36.053Z,5.95
2022-09-20T20:14:28.670Z,4.68
2022-09-20T20:17:36.173Z,4.47
2022-09-20T20:20:51.287Z,7.50
2022-09-20T20:23:57.303Z,5.72
2022-09-20T20:26:45.342Z,4.60
2022-09-20T20:29:30.905Z,7.22
2022-09-20T20:32:17.150Z,6.05
2022-09-20T20:35:02.938Z,7.47
2022-09-20T20:37:48.247Z,9.43
2022-09-20T20:40:33.955Z,6.18
2022-09-20T20:43:19.736Z,8.80
2022-09-20T20:46:07.902Z,6.30
2022-09-20T20:48:53.806Z,6.10
2022-09-20T20:51:39.238Z,5.90
2022-09-20T20:54:25.358Z,6.40
2022-09-20T20:57:11.009Z,5.43
2022-09-20T20:59:56.196Z,6.63
2022-09-20T21:02:41.745Z,5.75
2022-09-20T21:05:28.283Z,4.72
2022-09-20T21:08:13.556Z,6.00
2022-09-20T21:11:05.309Z,4.20
2022-09-20T21:13:55.269Z,5.50
2022-09-20T21:16:43.214Z,7.18
2022-09-20T21:19:28.714Z,8.32
2022-09-20T21:22:14.306Z,6.32
2022-09-20T21:24:59.961Z,5.93
2022-09-20T21:27:49.423Z,9.10
2022-09-20T21:30:35.016Z,9.25
2022-09-20T21:33:20.390Z,8.55
2022-09-20T21:36:07.244Z,13.07
2022-09-20T21:38:53.204Z,9.02
2022-09-20T21:41:39.714Z,16.23
2022-09-20T21:44:25.749Z,13.10
2022-09-20T21:47:11.359Z,7.85
2022-09-20T21:49:56.901Z,7.93
2022-09-20T21:52:46.523Z,11.88
2022-09-20T21:55:32.040Z,9.55
2022-09-20T21:58:18.099Z,10.98
2022-09-20T22:01:12.245Z,8.98
2022-09-20T22:04:01.344Z,9.88
2022-09-20T22:06:50.922Z,12.32
2022-09-20T22:09:38.531Z,9.07
2022-09-20T22:12:24.700Z,13.65
2022-09-20T22:15:10.703Z,10.98
2022-09-20T22:17:56.695Z,12.73
2022-09-20T22:20:42.498Z,9.98
2022-09-20T22:23:29.628Z,11.00
2022-09-20T22:26:17.191Z,13.73
2022-09-20T22:29:03.602Z,11.95
2022-09-20T22:31:50.117Z,10.57
2022-09-20T22:34:36.200Z,10.50
2022-09-20T22:37:21.926Z,8.77
2022-09-20T22:40:07.616Z,11.60
2022-09-20T22:42:53.791Z,10.88
2022-09-20T22:45:39.531Z,10.27
2022-09-20T22:48:25.261Z,10.75
2022-09-20T22:51:13.986Z,9.73
2022-09-20T22:54:00.009Z,11.20
2022-09-20T22:56:45.626Z,9.55
2022-09-20T22:59:31.161Z,9.57
2022-09-20T23:02:16.479Z,16.27
2022-09-20T23:05:02.094Z,12.40
2022-09-20T23:07:48.663Z,9.20
2022-09-20T23:10:34.264Z,12.43
2022-09-20T23:13:19.774Z,10.90
2022-09-20T23:16:18.666Z,11.60
2022-09-20T23:19:06.222Z,10.00
2022-09-20T23:21:51.797Z,9.85
2022-09-20T23:24:37.596Z,10.35
2022-09-20T23:27:22.970Z,11.88
2022-09-20T23:30:08.903Z,12.13
2022-09-20T23:32:54.575Z,11.90
2022-09-20T23:35:45.404Z,12.70
2022-09-20T23:38:30.689Z,12.40
2022-09-20T23:41:18.669Z,11.30
2022-09-20T23:44:09.806Z,10.65
2022-09-20T23:46:55.395Z,12.82
2022-09-20T23:49:41.224Z,11.00
2022-09-20T23:52:26.976Z,10.25
2022-09-20T23:55:12.670Z,9.27
2022-09-20T23:57:58.251Z,10.32
